createdAt,value
2018-07-17T00:00:28.324Z,73.28
2018-07-17T00:02:54.642Z,72.96
2018-07-17T00:05:20.954Z,73.16
2018-07-17T00:07:47.279Z,73.14
2018-07-17T00:10:13.599Z,73.53
2018-07-17T00:12:40.003Z,74.14
2018-07-17T00:15:06.315Z,74.14
2018-07-17T00:17:32.630Z,73.46
2018-07-17T00:19:58.955Z,72.66
2018-07-17T00:22:25.271Z,71.64
2018-07-17T00:24:51.584Z,71.14
2018-07-17T00:27:17.895Z,71.47
2018-07-17T00:29:44.206Z,70.93
2018-07-17T00:32:10.525Z,71.17
2018-07-17T00:34:36.858Z,71.82
2018-07-17T00:37:03.218Z,71.48
2018-07-17T00:39:31.523Z,72.07
2018-07-17T00:41:55.997Z,72.30
2018-07-17T00:44:22.593Z,73.08
2018-07-17T00:46:48.906Z,73.10
2018-07-17T00:49:15.221Z,73.09
2018-07-17T00:51:41.543Z,73.12
2018-07-17T00:54:07.850Z,73.30
2018-07-17T00:56:34.166Z,73.61
2018-07-17T00:59:00.471Z,73.64
2018-07-17T01:01:26.783Z,72.86
2018-07-17T01:03:53.098Z,72.42
2018-07-17T01:06:19.413Z,73.07
2018-07-17T01:08:45.730Z,72.51
2018-07-17T01:11:12.043Z,71.43
2018-07-17T01:13:38.357Z,71.66
2018-07-17T01:16:04.665Z,71.54
2018-07-17T01:18:30.980Z,71.53
2018-07-17T01:20:57.292Z,71.93
2018-07-17T01:23:23.643Z,72.09
2018-07-17T01:25:49.961Z,72.22
2018-07-17T01:28:16.273Z,72.39
2018-07-17T01:30:42.633Z,72.54
2018-07-17T01:33:08.959Z,72.35
2018-07-17T01:35:35.267Z,71.79
2018-07-17T01:38:01.578Z,71.34
2018-07-17T01:40:27.892Z,71.14
2018-07-17T01:42:54.224Z,70.98
2018-07-17T01:45:20.512Z,71.61
2018-07-17T01:47:46.820Z,71.18
2018-07-17T01:50:13.133Z,71.09
2018-07-17T01:52:39.440Z,71.56
2018-07-17T01:55:05.756Z,71.04
2018-07-17T01:57:32.067Z,71.62
2018-07-17T01:59:58.384Z,72.23
2018-07-17T02:02:24.697Z,72.66
2018-07-17T02:04:51.081Z,72.74
2018-07-17T02:07:17.320Z,72.21
2018-07-17T02:09:43.636Z,72.87
2018-07-17T02:12:09.943Z,72.90
2018-07-17T02:14:36.300Z,72.84
2018-07-17T02:17:02.612Z,71.99
2018-07-17T02:19:28.931Z,72.72
2018-07-17T02:21:55.249Z,72.05
2018-07-17T02:24:21.555Z,72.16
2018-07-17T02:26:47.874Z,72.74
2018-07-17T02:29:14.187Z,72.80
2018-07-17T02:31:40.516Z,73.60
2018-07-17T02:34:06.826Z,73.19
2018-07-17T02:36:33.145Z,73.46
2018-07-17T02:38:59.461Z,72.97
2018-07-17T02:41:25.777Z,73.03
2018-07-17T02:43:52.088Z,73.30
2018-07-17T02:46:18.402Z,73.29
2018-07-17T02:48:44.717Z,74.01
2018-07-17T02:51:11.025Z,74.30
2018-07-17T02:53:37.337Z,73.79
2018-07-17T02:56:03.666Z,74.23
2018-07-17T02:58:29.975Z,74.91
2018-07-17T03:00:56.289Z,74.60
2018-07-17T03:03:22.602Z,74.51
2018-07-17T03:05:48.916Z,74.82
2018-07-17T03:08:15.239Z,75.53
2018-07-17T03:10:41.558Z,75.19
2018-07-17T03:13:07.877Z,75.23
2018-07-17T03:15:34.196Z,75.52
2018-07-17T03:18:00.508Z,75.04
2018-07-17T03:20:26.825Z,75.64
2018-07-17T03:22:53.128Z,75.40
2018-07-17T03:25:19.436Z,75.91
2018-07-17T03:27:45.749Z,76.21
2018-07-17T03:30:12.063Z,76.17
2018-07-17T03:32:38.377Z,76.29
2018-07-17T03:35:04.691Z,76.43
2018-07-17T03:37:31.005Z,76.29
2018-07-17T03:39:57.333Z,76.81
2018-07-17T03:42:23.651Z,77.24
2018-07-17T03:44:49.963Z,77.25
2018-07-17T03:47:16.314Z,77.25
2018-07-17T03:49:42.626Z,76.99
2018-07-17T03:52:08.940Z,77.02
2018-07-17T03:54:35.249Z,77.18
2018-07-17T03:57:01.568Z,77.07
2018-07-17T03:59:27.883Z,77.50
2018-07-17T04:01:54.203Z,77.25
2018-07-17T04:04:20.528Z,76.73
2018-07-17T04:06:46.862Z,77.23
2018-07-17T04:09:13.156Z,77.08
2018-07-17T04:11:39.468Z,76.95
2018-07-17T04:14:05.786Z,76.58
2018-07-17T04:16:32.096Z,76.11
2018-07-17T04:18:58.413Z,75.77
2018-07-17T04:21:24.728Z,75.21
2018-07-17T04:23:51.039Z,75.32
2018-07-17T04:26:17.356Z,75.19
2018-07-17T04:28:43.762Z,75.14
2018-07-17T04:31:10.064Z,74.94
2018-07-17T04:33:36.376Z,74.51
2018-07-17T04:36:02.695Z,74.21
2018-07-17T04:38:29.057Z,73.87
2018-07-17T04:40:55.365Z,74.00
2018-07-17T04:43:21.677Z,73.88
2018-07-17T04:45:47.995Z,73.29
2018-07-17T04:48:14.313Z,73.44
2018-07-17T04:50:40.635Z,73.02
2018-07-17T04:53:06.949Z,72.44
2018-07-17T04:55:33.280Z,72.09
2018-07-17T04:57:59.589Z,72.12
2018-07-17T05:00:25.947Z,72.03
2018-07-17T05:02:52.263Z,71.51
2018-07-17T05:05:18.619Z,71.48
2018-07-17T05:07:44.939Z,70.45
2018-07-17T05:10:11.265Z,70.14
2018-07-17T05:12:37.584Z,68.53
2018-07-17T05:15:03.896Z,67.41
2018-07-17T05:17:30.261Z,66.33
2018-07-17T05:19:56.573Z,65.35
2018-07-17T05:22:22.886Z,64.43
2018-07-17T05:24:49.203Z,63.98
2018-07-17T05:27:15.513Z,62.68
2018-07-17T05:29:41.859Z,62.01
2018-07-17T05:32:08.172Z,62.72
2018-07-17T05:34:34.485Z,60.63
2018-07-17T05:37:00.804Z,57.22
2018-07-17T05:39:27.124Z,53.55
2018-07-17T05:41:53.441Z,51.21
2018-07-17T05:44:19.763Z,50.29
2018-07-17T05:46:46.082Z,50.65
2018-07-17T05:49:12.402Z,51.59
2018-07-17T05:51:38.712Z,50.91
2018-07-17T05:54:05.032Z,50.46
2018-07-17T05:56:31.349Z,48.38
2018-07-17T05:58:57.666Z,47.75
2018-07-17T06:01:23.980Z,47.27
2018-07-17T06:03:50.305Z,47.76
2018-07-17T06:06:16.630Z,46.59
2018-07-17T06:08:42.987Z,45.90
2018-07-17T06:11:09.338Z,45.65
2018-07-17T06:13:35.653Z,44.68
2018-07-17T06:16:02.013Z,45.04
2018-07-17T06:18:28.323Z,45.50
2018-07-17T06:20:54.652Z,45.09
2018-07-17T06:23:20.994Z,44.32
2018-07-17T06:25:47.307Z,43.57
2018-07-17T06:28:13.617Z,45.05
2018-07-17T06:30:39.933Z,47.84
2018-07-17T06:33:06.260Z,50.00
2018-07-17T06:35:32.565Z,52.15
2018-07-17T06:37:58.888Z,53.28
2018-07-17T06:40:25.201Z,53.48
2018-07-17T06:42:51.512Z,54.69
2018-07-17T06:45:17.824Z,55.01
2018-07-17T06:47:44.141Z,54.27
2018-07-17T06:50:10.516Z,55.48
2018-07-17T06:52:36.781Z,56.68
2018-07-17T06:55:03.102Z,57.40
2018-07-17T06:57:29.471Z,57.21
2018-07-17T06:59:55.757Z,57.53
2018-07-17T07:02:22.070Z,57.80
2018-07-17T07:04:48.394Z,57.67
2018-07-17T07:07:14.717Z,58.32
2018-07-17T07:09:41.030Z,58.33
2018-07-17T07:12:07.370Z,57.10
2018-07-17T07:14:33.689Z,57.91
2018-07-17T07:17:01.109Z,58.18
2018-07-17T07:19:27.420Z,57.84
2018-07-17T07:21:53.729Z,58.63
2018-07-17T07:24:20.057Z,58.60
2018-07-17T07:26:46.384Z,59.00
2018-07-17T07:29:12.708Z,59.04
2018-07-17T07:31:39.024Z,59.80
2018-07-17T07:34:05.337Z,59.55
2018-07-17T07:36:31.656Z,59.64
2018-07-17T07:38:57.964Z,60.07
2018-07-17T07:41:24.276Z,60.58
2018-07-17T07:43:50.664Z,60.76
2018-07-17T07:46:16.992Z,61.68
2018-07-17T07:48:43.312Z,62.74
2018-07-17T07:51:09.635Z,63.62
2018-07-17T07:53:35.951Z,65.09
2018-07-17T07:56:02.270Z,69.82
2018-07-17T07:58:28.580Z,79.22
2018-07-17T08:00:54.895Z,85.28
2018-07-17T08:03:21.221Z,91.98
2018-07-17T08:05:47.550Z,95.83
2018-07-17T08:08:13.864Z,98.07
2018-07-17T08:10:40.223Z,99.35
2018-07-17T08:13:06.595Z,100.00
2018-07-17T08:15:32.957Z,100.00
2018-07-17T08:17:59.274Z,100.00
2018-07-17T08:20:25.590Z,100.00
2018-07-17T08:22:51.916Z,100.00
2018-07-17T08:25:18.225Z,100.00
2018-07-17T08:27:44.538Z,100.00
2018-07-17T08:30:10.913Z,100.00
2018-07-17T08:32:37.269Z,100.00
2018-07-17T08:35:03.633Z,100.00
2018-07-17T08:37:29.953Z,100.00
2018-07-17T08:39:56.454Z,100.00
2018-07-17T08:42:22.703Z,100.00
2018-07-17T08:44:49.047Z,100.00
2018-07-17T08:47:15.372Z,100.00
2018-07-17T08:49:41.685Z,100.00
2018-07-17T08:52:08.005Z,100.00
2018-07-17T08:54:34.333Z,100.00
2018-07-17T08:57:00.955Z,100.00
2018-07-17T08:59:27.268Z,100.00
2018-07-17T09:01:53.589Z,100.00
2018-07-17T09:04:19.901Z,100.00
2018-07-17T09:06:46.217Z,100.00
2018-07-17T09:09:12.535Z,100.00
2018-07-17T09:11:38.856Z,100.00
2018-07-17T09:14:05.177Z,100.00
2018-07-17T09:16:31.489Z,100.00
2018-07-17T09:18:57.807Z,100.00
2018-07-17T09:21:24.177Z,100.00
2018-07-17T09:23:50.439Z,100.00
2018-07-17T09:26:16.755Z,100.00
2018-07-17T09:28:43.074Z,100.00
2018-07-17T09:31:09.395Z,100.00
2018-07-17T09:33:35.768Z,100.00
2018-07-17T09:36:02.050Z,100.00
2018-07-17T09:38:28.365Z,100.00
2018-07-17T09:40:54.740Z,100.00
2018-07-17T09:43:21.056Z,100.00
2018-07-17T09:45:47.404Z,99.46
2018-07-17T09:48:13.718Z,99.91
2018-07-17T09:50:40.098Z,99.22
2018-07-17T09:53:06.453Z,98.94
2018-07-17T09:55:32.759Z,98.31
2018-07-17T09:57:59.133Z,98.34
2018-07-17T10:00:25.445Z,98.69
2018-07-17T10:02:51.757Z,97.10
2018-07-17T10:05:18.101Z,97.25
2018-07-17T10:07:44.416Z,98.21
2018-07-17T10:10:10.749Z,98.47
2018-07-17T10:12:37.116Z,98.09
2018-07-17T10:15:03.439Z,97.35
2018-07-17T10:17:29.790Z,96.41
2018-07-17T10:19:56.112Z,91.66
2018-07-17T10:22:22.431Z,87.08
2018-07-17T10:24:48.738Z,85.49
2018-07-17T10:27:15.056Z,84.64
2018-07-17T10:29:41.373Z,81.28
2018-07-17T10:32:07.730Z,83.00
2018-07-17T10:34:34.046Z,82.79
2018-07-17T10:37:00.361Z,79.14
2018-07-17T10:39:26.737Z,75.64
2018-07-17T10:41:53.050Z,81.20
2018-07-17T10:44:19.365Z,78.76
2018-07-17T10:46:45.727Z,78.09
2018-07-17T10:49:12.078Z,73.44
2018-07-17T10:51:38.435Z,70.55
2018-07-17T10:54:04.710Z,70.98
2018-07-17T10:56:31.027Z,66.84
2018-07-17T10:58:57.448Z,69.86
2018-07-17T11:01:23.776Z,67.11
2018-07-17T11:03:50.080Z,66.48
2018-07-17T11:06:16.397Z,68.11
2018-07-17T11:08:42.708Z,67.97
2018-07-17T11:11:09.052Z,70.09
2018-07-17T11:13:35.365Z,68.33
2018-07-17T11:16:01.681Z,66.87
2018-07-17T11:18:27.999Z,64.41
2018-07-17T11:20:54.329Z,62.72
2018-07-17T11:23:20.646Z,60.12
2018-07-17T11:25:46.961Z,62.10
2018-07-17T11:28:13.277Z,63.40
2018-07-17T11:30:39.593Z,62.39
2018-07-17T11:33:05.908Z,62.71
2018-07-17T11:35:32.221Z,61.69
2018-07-17T11:37:58.532Z,61.64
2018-07-17T11:40:24.846Z,61.67
2018-07-17T11:42:51.157Z,62.31
2018-07-17T11:45:17.474Z,60.93
2018-07-17T11:47:43.849Z,60.23
2018-07-17T11:50:10.115Z,57.71
2018-07-17T11:52:36.430Z,56.96
2018-07-17T11:55:02.785Z,55.68
2018-07-17T11:57:29.148Z,56.06
2018-07-17T11:59:55.455Z,55.92
2018-07-17T12:02:21.767Z,55.13
2018-07-17T12:04:48.087Z,53.82
2018-07-17T12:07:14.435Z,55.92
2018-07-17T12:09:40.747Z,57.04
2018-07-17T12:12:07.107Z,56.82
2018-07-17T12:14:33.455Z,56.63
2018-07-17T12:16:59.770Z,57.35
2018-07-17T12:19:26.085Z,60.19
2018-07-17T12:21:52.395Z,62.85
2018-07-17T12:24:18.717Z,64.79
2018-07-17T12:26:45.037Z,66.76
2018-07-17T12:29:11.381Z,67.23
2018-07-17T12:31:37.703Z,66.59
2018-07-17T12:34:04.030Z,66.84
2018-07-17T12:36:30.341Z,66.66
2018-07-17T12:38:56.658Z,66.68
2018-07-17T12:41:22.977Z,67.45
2018-07-17T12:43:49.289Z,68.10
2018-07-17T12:46:15.601Z,67.81
2018-07-17T12:48:41.962Z,68.13
2018-07-17T12:51:08.280Z,71.00
2018-07-17T12:53:34.610Z,73.48
2018-07-17T12:56:00.969Z,75.87
2018-07-17T12:58:27.294Z,83.00
2018-07-17T13:00:53.609Z,88.48
2018-07-17T13:03:19.938Z,93.91
2018-07-17T13:05:46.293Z,96.77
2018-07-17T13:08:12.607Z,97.71
2018-07-17T13:10:38.915Z,98.76
2018-07-17T13:13:05.242Z,99.42
2018-07-17T13:15:31.569Z,100.00
2018-07-17T13:17:58.025Z,99.95
2018-07-17T13:20:24.210Z,100.00
2018-07-17T13:22:50.527Z,100.00
2018-07-17T13:25:16.841Z,100.00
2018-07-17T13:27:43.166Z,100.00
2018-07-17T13:30:09.497Z,100.00
2018-07-17T13:32:35.813Z,100.00
2018-07-17T13:35:02.135Z,99.89
2018-07-17T13:37:28.454Z,98.57
2018-07-17T13:39:54.776Z,97.43
2018-07-17T13:42:21.096Z,97.76
2018-07-17T13:44:47.473Z,99.02
2018-07-17T13:47:13.722Z,99.88
2018-07-17T13:49:40.077Z,99.73
2018-07-17T13:52:06.445Z,99.03
2018-07-17T13:54:32.708Z,96.91
2018-07-17T13:56:59.017Z,91.69
2018-07-17T13:59:25.378Z,89.38
2018-07-17T14:01:51.688Z,89.82
2018-07-17T14:04:18.079Z,87.24
2018-07-17T14:06:44.407Z,85.69
2018-07-17T14:09:10.682Z,79.63
2018-07-17T14:11:36.993Z,84.39
2018-07-17T14:14:03.312Z,82.78
2018-07-17T14:16:29.629Z,82.88
2018-07-17T14:18:55.953Z,81.80
2018-07-17T14:21:22.276Z,80.75
2018-07-17T14:23:48.726Z,77.33
2018-07-17T14:26:14.966Z,75.66
2018-07-17T14:28:41.284Z,75.28
2018-07-17T14:31:07.640Z,71.13
2018-07-17T14:33:33.976Z,69.96
2018-07-17T14:36:00.289Z,67.99
2018-07-17T14:38:26.604Z,68.76
2018-07-17T14:40:52.946Z,67.92
2018-07-17T14:43:19.257Z,66.28
2018-07-17T14:45:45.567Z,63.87
2018-07-17T14:48:11.914Z,62.80
2018-07-17T14:50:38.195Z,62.75
2018-07-17T14:53:04.508Z,60.36
2018-07-17T14:55:30.861Z,59.86
2018-07-17T14:57:57.180Z,58.62
2018-07-17T15:00:23.541Z,58.14
2018-07-17T15:02:49.855Z,58.64
2018-07-17T15:05:16.169Z,59.26
2018-07-17T15:07:42.503Z,59.61
2018-07-17T15:10:08.816Z,60.32
2018-07-17T15:12:35.132Z,61.71
2018-07-17T15:15:01.443Z,61.81
2018-07-17T15:17:27.825Z,61.76
2018-07-17T15:19:54.137Z,61.40
2018-07-17T15:22:20.498Z,61.47
2018-07-17T15:24:46.764Z,61.60
2018-07-17T15:27:13.084Z,60.93
2018-07-17T15:29:39.410Z,62.19
2018-07-17T15:32:05.779Z,61.34
2018-07-17T15:34:32.060Z,61.70
2018-07-17T15:36:58.433Z,61.71
2018-07-17T15:39:24.744Z,62.66
2018-07-17T15:41:51.063Z,63.16
2018-07-17T15:44:17.402Z,62.87
2018-07-17T15:46:43.713Z,63.07
2018-07-17T15:49:10.033Z,63.03
2018-07-17T15:51:36.345Z,63.13
2018-07-17T15:54:02.715Z,63.39
2018-07-17T15:56:28.971Z,62.77
2018-07-17T15:58:55.288Z,63.22
2018-07-17T16:01:21.600Z,62.90
2018-07-17T16:03:47.922Z,63.11
2018-07-17T16:06:14.297Z,62.73
2018-07-17T16:08:40.591Z,62.75
2018-07-17T16:11:06.916Z,62.12
2018-07-17T16:13:33.332Z,63.39
2018-07-17T16:15:59.557Z,63.62
2018-07-17T16:18:25.879Z,64.08
2018-07-17T16:20:52.192Z,64.29
2018-07-17T16:23:18.510Z,63.70
2018-07-17T16:25:44.826Z,63.16
2018-07-17T16:28:11.137Z,63.70
2018-07-17T16:30:37.580Z,63.90
2018-07-17T16:33:04.125Z,64.30
2018-07-17T16:35:30.444Z,64.31
2018-07-17T16:37:56.763Z,64.91
2018-07-17T16:40:23.073Z,64.93
2018-07-17T16:42:49.403Z,65.01
2018-07-17T16:45:15.754Z,64.88
2018-07-17T16:47:42.058Z,64.58
2018-07-17T16:50:08.371Z,64.45
2018-07-17T16:52:34.698Z,64.56
2018-07-17T16:55:01.058Z,64.42
2018-07-17T16:57:27.384Z,64.44
2018-07-17T16:59:53.746Z,65.02
2018-07-17T17:02:20.074Z,65.22
2018-07-17T17:04:46.402Z,65.33
2018-07-17T17:07:12.747Z,65.75
2018-07-17T17:09:39.119Z,66.26
2018-07-17T17:12:05.434Z,66.73
2018-07-17T17:14:31.756Z,66.91
2018-07-17T17:16:58.081Z,67.21
2018-07-17T17:19:24.398Z,67.65
2018-07-17T17:21:50.729Z,67.63
2018-07-17T17:24:17.184Z,67.94
2018-07-17T17:26:43.396Z,67.75
2018-07-17T17:29:09.754Z,67.89
2018-07-17T17:31:36.105Z,66.89
2018-07-17T17:34:02.429Z,67.26
2018-07-17T17:36:28.769Z,67.67
2018-07-17T17:38:55.058Z,67.96
2018-07-17T17:41:21.374Z,68.27
2018-07-17T17:43:47.690Z,68.71
2018-07-17T17:46:14.022Z,68.63
2018-07-17T17:48:40.332Z,68.92
2018-07-17T17:51:07.953Z,69.35
2018-07-17T17:53:33.002Z,69.62
2018-07-17T17:55:59.323Z,69.74
2018-07-17T17:58:25.953Z,70.04
2018-07-17T18:00:52.265Z,70.37
2018-07-17T18:03:18.617Z,70.52
2018-07-17T18:05:44.936Z,70.81
2018-07-17T18:08:11.256Z,70.97
2018-07-17T18:10:37.576Z,71.11
2018-07-17T18:13:03.905Z,70.91
2018-07-17T18:15:30.233Z,71.11
2018-07-17T18:17:56.561Z,71.29
2018-07-17T18:20:22.873Z,71.67
2018-07-17T18:22:49.200Z,71.78
2018-07-17T18:25:15.908Z,72.11
2018-07-17T18:27:42.233Z,71.95
2018-07-17T18:30:08.604Z,72.26
2018-07-17T18:32:34.923Z,72.13
2018-07-17T18:35:01.238Z,72.02
2018-07-17T18:37:27.560Z,71.88
2018-07-17T18:39:56.030Z,72.17
2018-07-17T18:42:22.347Z,72.53
2018-07-17T18:44:48.658Z,72.43
2018-07-17T18:47:14.981Z,71.17
2018-07-17T18:49:41.295Z,70.75
2018-07-17T18:52:07.721Z,70.03
2018-07-17T18:54:34.022Z,70.00
2018-07-17T18:57:00.333Z,68.70
2018-07-17T18:59:26.657Z,68.36
2018-07-17T19:01:52.967Z,68.76
2018-07-17T19:04:19.288Z,68.37
2018-07-17T19:06:45.598Z,68.63
2018-07-17T19:09:11.927Z,68.90
2018-07-17T19:11:38.250Z,69.29
2018-07-17T19:14:04.607Z,69.61
2018-07-17T19:16:31.007Z,69.60
2018-07-17T19:18:57.321Z,70.12
2018-07-17T19:21:23.645Z,70.51
2018-07-17T19:23:49.952Z,70.66
2018-07-17T19:26:16.268Z,71.26
2018-07-17T19:28:42.616Z,71.33
2018-07-17T19:31:08.933Z,71.62
2018-07-17T19:33:35.258Z,71.88
2018-07-17T19:36:01.588Z,72.21
2018-07-17T19:38:27.900Z,72.30
2018-07-17T19:40:54.293Z,71.76
2018-07-17T19:43:20.564Z,71.81
2018-07-17T19:45:46.880Z,72.06
2018-07-17T19:48:13.189Z,72.16
2018-07-17T19:50:39.500Z,72.41
2018-07-17T19:53:05.817Z,72.75
2018-07-17T19:55:32.124Z,72.92
2018-07-17T19:57:58.435Z,73.33
2018-07-17T20:00:24.764Z,73.38
2018-07-17T20:02:51.093Z,73.46
2018-07-17T20:05:17.432Z,73.41
2018-07-17T20:07:43.759Z,73.09
2018-07-17T20:10:10.112Z,73.72
2018-07-17T20:12:36.436Z,73.62
2018-07-17T20:15:02.783Z,74.22
2018-07-17T20:17:29.110Z,74.02
2018-07-17T20:19:55.448Z,74.26
2018-07-17T20:22:21.774Z,74.50
2018-07-17T20:24:48.151Z,74.47
2018-07-17T20:27:14.419Z,74.55
2018-07-17T20:29:40.732Z,74.36
2018-07-17T20:32:07.045Z,74.58
2018-07-17T20:34:33.375Z,74.76
2018-07-17T20:36:59.698Z,74.82
2018-07-17T20:39:26.013Z,74.91
2018-07-17T20:41:52.341Z,75.22
2018-07-17T20:44:18.694Z,75.46
2018-07-17T20:46:45.016Z,75.41
2018-07-17T20:49:11.313Z,75.50
2018-07-17T20:51:37.629Z,75.48
2018-07-17T20:54:03.936Z,75.65
2018-07-17T20:56:30.261Z,75.85
2018-07-17T20:58:56.579Z,75.85
2018-07-17T21:01:22.924Z,76.44
2018-07-17T21:03:49.265Z,76.10
2018-07-17T21:06:15.622Z,76.01
2018-07-17T21:08:41.938Z,76.41
2018-07-17T21:11:08.284Z,76.59
2018-07-17T21:13:34.629Z,76.86
2018-07-17T21:16:00.970Z,76.85
2018-07-17T21:18:27.314Z,77.03
2018-07-17T21:20:53.654Z,77.03
2018-07-17T21:23:19.970Z,76.94
2018-07-17T21:25:46.298Z,77.41
2018-07-17T21:28:12.612Z,77.90
2018-07-17T21:30:38.992Z,77.76
2018-07-17T21:33:05.312Z,78.08
2018-07-17T21:35:31.671Z,78.15
2018-07-17T21:37:57.986Z,78.13
2018-07-17T21:40:24.426Z,78.09
2018-07-17T21:42:50.690Z,78.33
2018-07-17T21:45:17.013Z,78.55
2018-07-17T21:47:43.405Z,78.44
2018-07-17T21:50:09.723Z,78.59
2018-07-17T21:52:36.047Z,78.85
2018-07-17T21:55:02.389Z,78.88
2018-07-17T21:57:28.728Z,78.96
2018-07-17T21:59:55.046Z,78.74
2018-07-17T22:02:21.394Z,78.53
2018-07-17T22:04:47.735Z,78.23
2018-07-17T22:07:14.058Z,78.01
2018-07-17T22:09:40.376Z,78.63
2018-07-17T22:12:06.695Z,78.55
2018-07-17T22:14:33.036Z,78.21
2018-07-17T22:16:59.355Z,78.45
2018-07-17T22:19:25.676Z,78.69
2018-07-17T22:21:51.999Z,78.98
2018-07-17T22:24:18.310Z,79.63
2018-07-17T22:26:44.633Z,80.06
2018-07-17T22:29:10.950Z,79.84
2018-07-17T22:31:37.271Z,80.30
2018-07-17T22:34:03.586Z,80.23
2018-07-17T22:36:29.936Z,80.37
2018-07-17T22:38:56.271Z,80.49
2018-07-17T22:41:22.611Z,80.73
2018-07-17T22:43:48.947Z,81.13
2018-07-17T22:46:15.293Z,81.10
2018-07-17T22:48:41.611Z,81.08
2018-07-17T22:51:07.930Z,81.34
2018-07-17T22:53:34.251Z,81.40
2018-07-17T22:56:00.571Z,81.19
2018-07-17T22:58:26.887Z,81.31
2018-07-17T23:00:53.224Z,81.18
2018-07-17T23:03:19.568Z,81.20
2018-07-17T23:05:45.912Z,81.27
2018-07-17T23:08:12.252Z,81.20
2018-07-17T23:10:38.600Z,81.37
2018-07-17T23:13:04.981Z,81.07
2018-07-17T23:15:31.329Z,81.25
2018-07-17T23:17:57.716Z,81.54
2018-07-17T23:20:24.025Z,81.44
2018-07-17T23:22:50.368Z,81.65
2018-07-17T23:25:16.763Z,81.97
2018-07-17T23:27:43.103Z,82.03
2018-07-17T23:30:09.489Z,82.09
2018-07-17T23:32:35.803Z,81.99
2018-07-17T23:35:02.120Z,81.72
2018-07-17T23:37:28.435Z,81.92
2018-07-17T23:39:54.754Z,81.85
2018-07-17T23:42:21.091Z,82.07
2018-07-17T23:44:47.437Z,82.16
2018-07-17T23:47:13.753Z,82.04
2018-07-17T23:49:40.074Z,82.17
2018-07-17T23:52:06.412Z,82.05
2018-07-17T23:54:32.757Z,82.08
2018-07-17T23:56:59.081Z,82.09
2018-07-17T23:59:25.396Z,82.12
